Time;durP1;ratioP1;P1;durP2;ratioP2;P2;SDS_P1;SDS_P2;PMS_P1;PMS_P2;Temp;Humidity;BMP_temperature;BMP_pressure;BME280_temperature;BME280_humidity;BME280_pressure;Samples;Min_cycle;Max_cycle;Signal;HPM_P1;HPM_P2
2021/05/28 00:00:57;;;;;;;13.10;9.55;;;10.40;82.00;;;;;;5054307;28;20536;-83
2021/05/28 00:03:25;;;;;;;14.23;9.88;;;10.40;82.00;;;;;;5022546;28;20037;-82
2021/05/28 00:05:51;;;;;;;14.90;9.60;;;10.40;82.10;;;;;;5020659;28;20041;-82
2021/05/28 00:08:17;;;;;;;14.82;9.35;;;10.40;82.10;;;;;;5063034;28;20120;-83
2021/05/28 00:10:43;;;;;;;15.30;9.82;;;10.40;82.20;;;;;;5040074;28;20572;-83
2021/05/28 00:13:09;;;;;;;13.45;9.80;;;10.30;82.10;;;;;;5057686;28;20585;-82
2021/05/28 00:15:35;;;;;;;11.05;8.90;;;10.30;82.20;;;;;;5040946;28;20039;-82
2021/05/28 00:18:01;;;;;;;13.98;9.05;;;10.30;82.20;;;;;;5057034;28;20466;-85
2021/05/28 00:20:27;;;;;;;12.80;10.10;;;10.30;82.10;;;;;;5040927;28;20048;-84
2021/05/28 00:22:52;;;;;;;16.08;9.77;;;10.20;82.20;;;;;;5040275;28;20044;-83
2021/05/28 00:25:18;;;;;;;15.88;11.48;;;10.20;82.10;;;;;;5040932;28;20047;-83
2021/05/28 00:27:44;;;;;;;18.88;13.07;;;10.20;82.20;;;;;;5040245;28;20051;-84
2021/05/28 00:30:11;;;;;;;17.67;11.85;;;10.20;82.20;;;;;;5057351;28;20048;-83
2021/05/28 00:32:37;;;;;;;16.77;10.85;;;10.20;82.20;;;;;;5057399;28;20174;-83
2021/05/28 00:35:04;;;;;;;14.60;10.40;;;10.20;82.30;;;;;;5056487;28;20040;-83
2021/05/28 00:37:30;;;;;;;17.08;10.98;;;10.20;82.50;;;;;;5036972;28;20037;-81
2021/05/28 00:39:56;;;;;;;18.88;10.55;;;10.10;82.50;;;;;;5056151;28;20044;-82
2021/05/28 00:42:24;;;;;;;11.63;9.32;;;10.20;82.60;;;;;;5030637;28;20048;-84
2021/05/28 00:44:52;;;;;;;18.15;10.10;;;10.20;82.50;;;;;;5037429;28;20090;-82
2021/05/28 00:47:19;;;;;;;15.30;9.82;;;10.20;82.60;;;;;;5053754;28;20153;-82
2021/05/28 00:49:45;;;;;;;13.30;10.18;;;10.20;82.70;;;;;;5046866;28;20040;-86
2021/05/28 00:52:12;;;;;;;15.98;10.95;;;10.20;82.70;;;;;;5056993;28;20123;-80
2021/05/28 00:54:38;;;;;;;16.42;9.50;;;10.20;82.70;;;;;;5041093;28;20048;-83
2021/05/28 00:57:04;;;;;;;15.77;10.25;;;10.20;82.60;;;;;;5056471;28;20032;-83
2021/05/28 00:59:30;;;;;;;16.45;10.10;;;10.20;82.50;;;;;;5051502;28;20059;-83
2021/05/28 01:01:56;;;;;;;18.05;9.73;;;10.20;82.50;;;;;;5055496;28;20044;-81
2021/05/28 01:04:22;;;;;;;22.13;10.82;;;10.20;82.40;;;;;;5025039;28;20496;-81
2021/05/28 01:06:47;;;;;;;16.70;10.45;;;10.30;82.30;;;;;;5040298;28;20045;-85
2021/05/28 01:09:13;;;;;;;16.48;10.02;;;10.30;82.20;;;;;;5053281;28;20402;-82
2021/05/28 01:11:39;;;;;;;13.60;9.32;;;10.30;82.00;;;;;;5053334;28;20405;-80
2021/05/28 01:14:05;;;;;;;15.48;10.07;;;10.30;81.80;;;;;;5019661;28;20047;-83
2021/05/28 01:16:31;;;;;;;12.68;9.93;;;10.30;81.80;;;;;;5036753;28;20085;-83
2021/05/28 01:19:00;;;;;;;16.30;10.05;;;10.30;81.70;;;;;;5052350;28;20045;-84
2021/05/28 01:21:26;;;;;;;15.68;9.88;;;10.30;81.60;;;;;;5021649;28;20045;-82
2021/05/28 01:23:55;;;;;;;16.73;10.43;;;10.30;81.60;;;;;;5036164;28;20052;-86
2021/05/28 01:26:21;;;;;;;17.33;10.10;;;10.30;81.60;;;;;;5036911;28;20519;-83
2021/05/28 01:28:46;;;;;;;19.63;12.32;;;10.30;81.60;;;;;;5019881;28;20082;-82
2021/05/28 01:31:12;;;;;;;15.68;10.70;;;10.30;81.50;;;;;;5035434;28;20130;-83
2021/05/28 01:33:40;;;;;;;14.35;10.07;;;10.30;81.40;;;;;;5020172;28;20052;-80
2021/05/28 01:36:06;;;;;;;16.92;12.48;;;10.30;81.40;;;;;;5035855;28;20041;-83
2021/05/28 01:38:31;;;;;;;19.15;11.23;;;10.30;81.40;;;;;;5004153;28;20520;-83
2021/05/28 01:40:57;;;;;;;17.33;9.63;;;10.30;81.50;;;;;;5035731;28;20080;-83
2021/05/28 01:43:23;;;;;;;19.50;11.85;;;10.30;81.50;;;;;;5019967;28;20412;-83
2021/05/28 01:45:49;;;;;;;13.45;9.50;;;10.30;81.50;;;;;;5019732;28;20489;-83
2021/05/28 01:48:15;;;;;;;11.55;8.80;;;10.30;81.70;;;;;;5052207;28;20040;-83
2021/05/28 01:50:44;;;;;;;17.17;10.05;;;10.30;81.70;;;;;;5053015;28;20048;-81
2021/05/28 01:53:22;;;;;;;17.33;8.95;;;10.30;81.70;;;;;;5019969;28;20448;-84
2021/05/28 01:55:48;;;;;;;13.23;9.48;;;10.30;81.60;;;;;;5037759;28;20037;-83
2021/05/28 01:58:15;;;;;;;18.15;9.82;;;10.30;81.60;;;;;;5035589;28;20113;-81
2021/05/28 02:00:41;;;;;;;14.63;9.63;;;10.30;81.70;;;;;;5036684;28;20040;-84
2021/05/28 02:03:07;;;;;;;14.35;9.82;;;10.30;81.70;;;;;;5022915;28;20477;-82
2021/05/28 02:05:34;;;;;;;16.50;9.20;;;10.30;81.70;;;;;;5023313;28;20476;-83
2021/05/28 02:08:00;;;;;;;12.52;9.10;;;10.30;81.70;;;;;;5022920;28;20044;-84
2021/05/28 02:10:26;;;;;;;14.48;9.40;;;10.30;81.70;;;;;;5052732;28;20493;-82
2021/05/28 02:12:54;;;;;;;15.43;9.82;;;10.30;81.70;;;;;;5053180;28;20059;-83
2021/05/28 02:15:20;;;;;;;16.88;10.23;;;10.30;81.70;;;;;;5036025;28;20049;-83
2021/05/28 02:17:46;;;;;;;13.68;8.88;;;10.30;81.70;;;;;;5037448;28;20052;-82
2021/05/28 02:20:12;;;;;;;13.55;8.90;;;10.30;81.70;;;;;;5055582;28;20086;-83
2021/05/28 02:22:38;;;;;;;17.02;10.20;;;10.30;81.60;;;;;;5039582;28;20148;-84
2021/05/28 02:25:05;;;;;;;15.40;9.15;;;10.30;81.70;;;;;;5039080;28;20163;-84
2021/05/28 02:27:32;;;;;;;12.80;8.73;;;10.30;81.70;;;;;;5056018;28;20401;-84
2021/05/28 02:29:59;;;;;;;16.10;9.02;;;10.30;81.80;;;;;;5039283;28;20040;-85
2021/05/28 02:32:25;;;;;;;14.88;9.35;;;10.30;81.80;;;;;;5055672;28;20151;-84
2021/05/28 02:34:51;;;;;;;12.02;8.90;;;10.30;81.80;;;;;;5062995;28;20170;-82
2021/05/28 02:37:16;;;;;;;13.60;8.52;;;10.30;81.90;;;;;;5052408;28;20484;-83
2021/05/28 02:39:42;;;;;;;15.10;9.57;;;10.30;81.90;;;;;;5055855;28;20488;-84
2021/05/28 02:42:11;;;;;;;15.80;8.90;;;10.30;82.00;;;;;;5055286;28;20473;-84
2021/05/28 02:44:37;;;;;;;14.35;9.07;;;10.30;82.10;;;;;;5056663;28;20047;-83
2021/05/28 02:47:07;;;;;;;13.20;8.52;;;10.30;82.00;;;;;;5018736;28;20410;-87
2021/05/28 02:49:33;;;;;;;13.23;7.90;;;10.30;82.10;;;;;;5052642;28;20124;-82
2021/05/28 02:51:59;;;;;;;12.30;8.25;;;10.30;82.00;;;;;;5052673;28;20561;-84
2021/05/28 02:54:25;;;;;;;12.82;8.20;;;10.30;82.20;;;;;;5051950;28;20037;-82
2021/05/28 02:56:51;;;;;;;11.65;8.38;;;10.30;82.30;;;;;;5052395;28;20041;-82
2021/05/28 02:59:17;;;;;;;15.38;9.27;;;10.30;82.20;;;;;;5067401;28;20477;-83
2021/05/28 03:01:43;;;;;;;14.30;9.35;;;10.30;82.10;;;;;;5071996;28;20077;-82
2021/05/28 03:04:15;;;;;;;12.77;8.55;;;10.30;82.20;;;;;;5038320;28;20058;-85
2021/05/28 03:06:41;;;;;;;11.48;8.40;;;10.20;82.30;;;;;;5055605;28;20056;-80
2021/05/28 03:09:09;;;;;;;13.45;8.00;;;10.20;82.60;;;;;;5038673;28;20056;-84
2021/05/28 03:11:34;;;;;;;12.23;7.78;;;10.20;82.60;;;;;;5072167;28;20071;-83
2021/05/28 03:14:00;;;;;;;12.10;7.88;;;10.20;82.60;;;;;;5071208;28;20109;-83
2021/05/28 03:16:29;;;;;;;12.35;7.78;;;10.30;82.50;;;;;;5071281;28;20083;-83
2021/05/28 03:19:01;;;;;;;15.88;8.65;;;10.30;82.40;;;;;;5055828;28;20032;-80
2021/05/28 03:24:01;;;;;;;13.02;8.70;;;10.30;82.30;;;;;;5072358;28;20072;-83
2021/05/28 03:26:27;;;;;;;15.27;8.75;;;10.30;82.20;;;;;;5054318;28;20088;-83
2021/05/28 03:28:54;;;;;;;11.85;8.15;;;10.30;82.20;;;;;;5071839;28;20045;-85
2021/05/28 03:31:23;;;;;;;10.93;7.85;;;10.30;82.30;;;;;;5070834;28;20474;-83
2021/05/28 03:33:49;;;;;;;14.23;9.18;;;10.30;82.30;;;;;;5073082;28;20055;-83
2021/05/28 03:36:15;;;;;;;15.52;9.07;;;10.30;82.40;;;;;;5058699;28;20041;-83
2021/05/28 03:38:41;;;;;;;15.88;9.23;;;10.30;82.60;;;;;;5076302;28;20048;-82
2021/05/28 03:41:07;;;;;;;12.60;8.60;;;10.20;82.70;;;;;;5044840;28;20045;-85
2021/05/28 03:43:34;;;;;;;14.48;8.82;;;10.20;82.90;;;;;;5077296;28;20078;-82
2021/05/28 03:46:01;;;;;;;13.68;9.52;;;10.20;83.00;;;;;;5078334;28;20048;-83
2021/05/28 03:48:27;;;;;;;14.18;8.63;;;10.20;83.00;;;;;;5077514;28;20040;-83
2021/05/28 03:50:53;;;;;;;14.82;8.82;;;10.30;82.90;;;;;;5077994;28;20060;-82
2021/05/28 03:53:19;;;;;;;15.90;8.63;;;10.30;82.90;;;;;;5077473;28;20126;-84
2021/05/28 03:55:44;;;;;;;14.70;10.02;;;10.30;82.90;;;;;;5045093;28;20064;-81
2021/05/28 03:58:13;;;;;;;14.48;9.60;;;10.30;83.00;;;;;;5061528;28;20366;-88
2021/05/28 04:00:39;;;;;;;15.45;9.18;;;10.20;83.10;;;;;;5061129;28;20048;-83
2021/05/28 04:03:08;;;;;;;14.95;9.70;;;10.30;83.30;;;;;;5078075;28;20036;-84
2021/05/28 04:05:34;;;;;;;14.93;10.07;;;10.30;83.30;;;;;;5078670;28;20602;-83
2021/05/28 04:08:01;;;;;;;16.02;10.07;;;10.30;83.50;;;;;;5046378;28;20079;-83
2021/05/28 04:10:27;;;;;;;17.85;10.38;;;10.30;83.50;;;;;;5062163;28;20139;-82
2021/05/28 04:12:54;;;;;;;17.27;11.07;;;10.30;83.50;;;;;;5079009;28;20075;-83
2021/05/28 04:15:20;;;;;;;15.63;11.27;;;10.30;83.50;;;;;;5062430;28;20066;-84
2021/05/28 04:17:45;;;;;;;17.67;10.35;;;10.30;83.60;;;;;;5029680;28;20056;-84
2021/05/28 04:20:12;;;;;;;15.40;10.65;;;10.30;83.60;;;;;;5063043;28;20040;-83
2021/05/28 04:22:38;;;;;;;13.45;10.77;;;10.30;83.70;;;;;;5045730;28;20241;-84
2021/05/28 04:25:04;;;;;;;17.85;10.07;;;10.30;83.70;;;;;;5062414;28;20040;-83
2021/05/28 04:27:30;;;;;;;16.60;9.80;;;10.30;83.70;;;;;;5045627;28;20044;-84
2021/05/28 04:29:56;;;;;;;16.77;10.18;;;10.30;83.80;;;;;;5046156;28;20063;-85
2021/05/28 04:32:24;;;;;;;15.95;9.40;;;10.30;83.90;;;;;;5045514;28;20060;-84
2021/05/28 04:34:50;;;;;;;16.20;9.63;;;10.30;84.00;;;;;;5046062;28;20053;-84
2021/05/28 04:37:16;;;;;;;14.57;10.02;;;10.30;84.00;;;;;;5062515;28;20370;-86
2021/05/28 04:39:42;;;;;;;15.68;9.35;;;10.30;83.90;;;;;;5061980;28;20041;-85
2021/05/28 04:42:08;;;;;;;11.93;8.75;;;10.30;83.80;;;;;;5079851;28;20056;-83
2021/05/28 04:44:37;;;;;;;14.93;9.15;;;10.40;83.80;;;;;;5065197;28;20050;-84
2021/05/28 04:47:03;;;;;;;15.50;8.52;;;10.40;83.70;;;;;;5063302;28;20060;-83
2021/05/28 04:49:30;;;;;;;14.52;8.38;;;10.40;83.70;;;;;;5078463;28;20527;-84
2021/05/28 04:51:56;;;;;;;13.13;8.10;;;10.40;83.70;;;;;;5080114;28;20051;-82
2021/05/28 04:54:22;;;;;;;13.27;8.63;;;10.40;83.70;;;;;;5063454;28;20064;-86
2021/05/28 04:56:50;;;;;;;13.30;8.75;;;10.40;83.40;;;;;;5055725;28;20063;-83
2021/05/28 04:59:16;;;;;;;14.68;9.30;;;10.50;83.40;;;;;;5041740;28;20041;-86
2021/05/28 05:01:42;;;;;;;15.27;8.90;;;10.50;83.40;;;;;;5007956;28;20079;-85
2021/05/28 05:04:11;;;;;;;14.45;8.85;;;10.50;83.50;;;;;;5030307;28;20037;-86
2021/05/28 05:06:38;;;;;;;10.85;8.35;;;10.50;83.40;;;;;;5034079;28;20078;-86
2021/05/28 05:09:07;;;;;;;13.32;8.25;;;10.50;83.40;;;;;;5060012;28;20048;-86
2021/05/28 05:11:35;;;;;;;14.32;8.07;;;10.50;83.60;;;;;;5037921;28;20052;-84
2021/05/28 05:14:02;;;;;;;15.00;8.85;;;10.60;83.40;;;;;;5071495;28;20112;-83
2021/05/28 05:16:33;;;;;;;13.05;8.32;;;10.60;83.20;;;;;;5037504;28;20055;-85
2021/05/28 05:19:05;;;;;;;13.95;8.85;;;10.60;83.20;;;;;;5060277;28;20553;-85
2021/05/28 05:21:34;;;;;;;13.60;7.72;;;10.70;83.20;;;;;;5060044;28;20048;-83
2021/05/28 05:24:00;;;;;;;13.30;8.25;;;10.70;83.00;;;;;;5051055;28;20040;-84
2021/05/28 05:26:28;;;;;;;13.00;8.68;;;10.70;83.00;;;;;;5063418;28;20090;-87
2021/05/28 05:28:56;;;;;;;14.07;8.40;;;10.80;83.10;;;;;;5054973;28;20041;-89
2021/05/28 05:31:23;;;;;;;14.15;8.18;;;10.80;83.00;;;;;;5035188;28;20410;-75
2021/05/28 05:33:50;;;;;;;11.20;7.57;;;10.80;82.80;;;;;;5030373;28;20049;-81
2021/05/28 05:36:16;;;;;;;11.05;7.70;;;10.80;82.70;;;;;;5033066;28;20053;-77
2021/05/28 05:38:42;;;;;;;10.23;7.20;;;10.90;82.70;;;;;;5052502;28;20103;-73
2021/05/28 05:41:10;;;;;;;14.82;7.55;;;10.90;82.60;;;;;;5069483;28;20429;-72
2021/05/28 05:43:36;;;;;;;13.48;7.88;;;11.00;82.50;;;;;;5071842;28;20327;-73
2021/05/28 05:46:02;;;;;;;110.13;51.03;;;11.00;82.40;;;;;;5067290;28;20090;-73
2021/05/28 05:48:29;;;;;;;31.00;15.27;;;11.30;83.60;;;;;;5058102;28;20173;-82
2021/05/28 05:50:56;;;;;;;22.17;11.68;;;11.40;82.70;;;;;;5075397;28;20044;-81
2021/05/28 05:53:24;;;;;;;19.92;11.50;;;11.40;82.20;;;;;;5048037;28;20051;-83
2021/05/28 05:55:50;;;;;;;15.82;10.07;;;11.40;82.00;;;;;;5041500;28;20384;-84
2021/05/28 05:58:16;;;;;;;15.63;8.90;;;11.40;81.80;;;;;;5023448;28;20048;-85
2021/05/28 06:00:42;;;;;;;15.88;8.50;;;11.40;81.70;;;;;;5041222;28;20170;-84
2021/05/28 06:03:07;;;;;;;12.10;8.13;;;11.50;81.70;;;;;;5048508;28;20064;-83
2021/05/28 06:05:33;;;;;;;14.10;8.35;;;11.50;81.70;;;;;;5069385;28;20068;-82
2021/05/28 06:07:59;;;;;;;13.18;7.40;;;11.40;81.60;;;;;;5067365;28;20431;-77
2021/05/28 06:10:25;;;;;;;14.45;8.23;;;11.60;82.30;;;;;;5068710;28;20091;-82
2021/05/28 06:12:51;;;;;;;12.40;7.88;;;11.70;82.20;;;;;;5047581;28;20037;-77
2021/05/28 06:15:17;;;;;;;12.27;7.22;;;11.70;81.50;;;;;;5069835;28;20427;-84
2021/05/28 06:17:43;;;;;;;15.75;7.57;;;11.70;81.70;;;;;;5052989;28;20048;-85
2021/05/28 06:20:09;;;;;;;10.38;6.85;;;11.70;81.20;;;;;;5075269;28;20071;-87
2021/05/28 06:22:35;;;;;;;16.33;8.07;;;11.70;81.10;;;;;;5073351;28;20062;-81
2021/05/28 06:25:01;;;;;;;12.75;7.35;;;11.70;81.00;;;;;;5065091;28;20420;-79
2021/05/28 06:27:30;;;;;;;13.75;8.10;;;11.60;81.00;;;;;;5029274;28;20138;-78
2021/05/28 06:29:58;;;;;;;12.65;8.15;;;11.60;81.00;;;;;;5049149;28;20048;-79
2021/05/28 06:32:23;;;;;;;11.20;7.43;;;11.60;81.10;;;;;;5036977;28;20044;-78
2021/05/28 06:34:49;;;;;;;10.63;7.38;;;11.60;81.10;;;;;;5073755;28;20082;-79
2021/05/28 06:37:15;;;;;;;10.48;7.00;;;11.70;81.10;;;;;;5074871;28;20500;-77
2021/05/28 06:39:41;;;;;;;13.05;7.57;;;11.70;81.00;;;;;;5074269;28;20044;-77
2021/05/28 06:42:07;;;;;;;10.73;7.25;;;11.80;81.00;;;;;;5074618;28;20055;-79
2021/05/28 06:44:35;;;;;;;12.20;6.45;;;11.80;80.90;;;;;;5058615;28;20075;-78
2021/05/28 06:47:01;;;;;;;9.63;7.07;;;11.80;80.80;;;;;;5074286;28;20067;-77
2021/05/28 06:49:26;;;;;;;10.93;7.20;;;11.90;80.70;;;;;;5074275;28;20404;-79
2021/05/28 06:51:53;;;;;;;12.80;7.88;;;11.90;80.60;;;;;;5056900;28;20529;-77
2021/05/28 06:54:19;;;;;;;11.63;8.05;;;11.90;80.60;;;;;;5057419;28;20048;-78
2021/05/28 06:56:44;;;;;;;9.65;7.10;;;11.90;80.50;;;;;;5075511;28;20047;-78
2021/05/28 06:59:11;;;;;;;15.60;7.75;;;12.10;81.00;;;;;;5079564;28;20044;-82
2021/05/28 07:01:37;;;;;;;13.35;7.45;;;12.10;81.10;;;;;;5061806;28;20132;-78
2021/05/28 07:04:04;;;;;;;14.15;8.02;;;12.10;80.50;;;;;;5059253;28;20079;-83
2021/05/28 07:06:30;;;;;;;12.85;8.75;;;12.10;80.20;;;;;;5061555;28;20079;-80
2021/05/28 07:08:56;;;;;;;11.25;8.52;;;12.10;80.20;;;;;;5044487;28;20068;-81
2021/05/28 07:11:23;;;;;;;19.05;10.65;;;12.10;80.30;;;;;;5059737;28;20052;-85
2021/05/28 07:13:48;;;;;;;34.05;16.88;;;12.00;80.30;;;;;;5043858;28;20052;-78
2021/05/28 07:16:14;;;;;;;25.00;11.35;;;12.50;81.70;;;;;;5075666;28;20041;-80
2021/05/28 07:18:40;;;;;;;16.00;7.97;;;12.60;81.30;;;;;;5078246;28;20048;-81
2021/05/28 07:21:06;;;;;;;14.98;7.75;;;13.00;80.90;;;;;;5056700;28;20175;-81
2021/05/28 07:23:32;;;;;;;14.95;7.35;;;13.10;80.00;;;;;;5062171;28;20473;-79
2021/05/28 07:26:00;;;;;;;15.13;8.68;;;13.20;79.10;;;;;;5050142;28;20095;-80
2021/05/28 07:28:30;;;;;;;10.75;7.53;;;13.10;78.80;;;;;;5046579;28;20097;-80
2021/05/28 07:30:56;;;;;;;13.73;7.65;;;13.00;78.60;;;;;;5069459;28;20365;-79
2021/05/28 07:33:22;;;;;;;11.55;7.55;;;12.90;78.80;;;;;;5068114;28;20036;-80
2021/05/28 07:35:47;;;;;;;15.85;8.40;;;12.80;79.00;;;;;;5067749;28;20044;-80
2021/05/28 07:38:13;;;;;;;12.48;7.68;;;12.80;79.20;;;;;;5059936;28;20075;-80
2021/05/28 07:40:40;;;;;;;13.15;8.35;;;12.70;79.20;;;;;;5054753;28;20096;-81
2021/05/28 07:43:06;;;;;;;10.98;7.82;;;12.60;79.30;;;;;;5053569;28;20052;-79
2021/05/28 07:45:32;;;;;;;9.77;7.68;;;12.60;79.50;;;;;;5065890;28;20037;-78
2021/05/28 07:47:58;;;;;;;12.45;7.47;;;12.50;79.60;;;;;;5052397;28;20057;-84
2021/05/28 07:50:24;;;;;;;12.50;6.75;;;12.50;79.70;;;;;;5034084;28;20075;-83
2021/05/28 07:52:51;;;;;;;11.75;7.63;;;12.40;79.80;;;;;;5036276;28;20037;-83
2021/05/28 07:55:19;;;;;;;12.68;7.80;;;12.40;79.90;;;;;;5040834;28;20102;-83
2021/05/28 07:57:48;;;;;;;11.35;7.03;;;12.40;79.90;;;;;;5066843;28;20037;-83
2021/05/28 08:00:19;;;;;;;12.40;7.82;;;12.40;80.00;;;;;;5039328;28;20053;-84
2021/05/28 08:02:47;;;;;;;10.50;7.60;;;12.30;80.00;;;;;;5036649;28;20041;-84
2021/05/28 08:05:16;;;;;;;11.43;8.48;;;12.30;80.00;;;;;;5067696;28;20040;-83
2021/05/28 08:07:44;;;;;;;11.70;7.20;;;12.30;80.20;;;;;;5033445;28;20048;-81
2021/05/28 08:10:16;;;;;;;12.80;7.80;;;12.30;80.30;;;;;;5052890;28;20404;-82
2021/05/28 08:13:02;;;;;;;12.90;7.57;;;12.30;80.50;;;;;;5072881;28;20036;-82
2021/05/28 08:15:35;;;;;;;11.50;7.72;;;12.30;80.50;;;;;;5053965;28;20040;-82
2021/05/28 08:18:06;;;;;;;12.02;8.35;;;12.40;80.40;;;;;;5059837;28;20533;-83
2021/05/28 08:20:32;;;;;;;10.85;7.22;;;12.30;80.20;;;;;;5042657;28;20051;-81
2021/05/28 08:22:59;;;;;;;13.15;7.22;;;12.30;80.20;;;;;;5063109;28;20043;-85
2021/05/28 08:25:26;;;;;;;10.35;7.22;;;12.30;80.30;;;;;;5033175;28;20044;-82
2021/05/28 08:27:52;;;;;;;11.82;7.53;;;12.30;80.30;;;;;;5045877;28;20040;-84
2021/05/28 08:30:27;;;;;;;12.85;8.68;;;12.30;80.30;;;;;;5049809;28;20067;-81
2021/05/28 08:33:36;;;;;;;10.75;7.75;;;12.40;80.30;;;;;;5037579;28;20051;-81
2021/05/28 08:36:02;;;;;;;11.15;7.03;;;12.40;80.50;;;;;;5078088;28;20040;-82
2021/05/28 08:38:35;;;;;;;12.43;6.40;;;12.50;80.40;;;;;;5051690;28;20450;-83
2021/05/28 08:41:25;;;;;;;11.47;7.43;;;12.50;80.50;;;;;;5030703;28;20081;-77
2021/05/28 08:43:53;;;;;;;11.82;7.47;;;12.60;80.50;;;;;;5073805;28;20047;-80
2021/05/28 08:46:21;;;;;;;11.05;6.78;;;12.60;80.50;;;;;;5039667;28;20036;-77
2021/05/28 08:48:50;;;;;;;9.32;6.70;;;12.60;80.60;;;;;;5040980;28;20094;-75
2021/05/28 08:51:16;;;;;;;11.00;6.93;;;12.60;80.60;;;;;;5023776;28;20047;-75
2021/05/28 08:53:43;;;;;;;9.60;5.88;;;12.70;80.80;;;;;;5039154;28;20082;-75
2021/05/28 08:56:09;;;;;;;12.75;6.25;;;12.80;80.70;;;;;;5045883;28;20041;-77
2021/05/28 08:58:35;;;;;;;11.88;6.90;;;12.80;80.90;;;;;;5058198;28;20048;-78
2021/05/28 09:01:01;;;;;;;13.65;6.53;;;12.90;81.10;;;;;;5043655;28;20048;-78
2021/05/28 09:03:31;;;;;;;9.10;5.57;;;13.10;81.10;;;;;;5031150;28;20555;-72
2021/05/28 09:05:59;;;;;;;11.00;7.10;;;13.20;81.50;;;;;;5076762;28;20094;-73
2021/05/28 09:08:31;;;;;;;9.43;6.40;;;13.30;81.40;;;;;;5053570;28;20048;-74
2021/05/28 09:11:08;;;;;;;9.07;5.78;;;13.40;81.30;;;;;;5051480;28;20048;-74
2021/05/28 09:13:34;;;;;;;8.23;5.95;;;13.50;81.50;;;;;;5078965;28;20036;-73
2021/05/28 09:16:32;;;;;;;8.20;6.03;;;13.60;81.50;;;;;;5072429;28;20044;-73
2021/05/28 09:18:59;;;;;;;8.10;6.10;;;13.70;81.30;;;;;;5068301;28;20060;-73
2021/05/28 09:21:32;;;;;;;10.35;5.57;;;13.80;81.00;;;;;;5073298;28;20454;-73
2021/05/28 09:23:59;;;;;;;8.88;6.10;;;14.00;81.00;;;;;;5059926;28;20040;-78
2021/05/28 09:26:25;;;;;;;10.65;5.22;;;14.10;80.70;;;;;;5043151;28;20097;-79
2021/05/28 09:28:51;;;;;;;9.90;6.07;;;14.20;80.60;;;;;;5052585;28;20381;-80
2021/05/28 09:31:22;;;;;;;9.18;5.85;;;14.30;80.30;;;;;;5053089;28;20040;-79
2021/05/28 09:33:51;;;;;;;7.85;5.28;;;14.50;80.50;;;;;;5034595;28;21586;-81
2021/05/28 09:36:21;;;;;;;6.30;4.78;;;14.70;80.40;;;;;;5039225;28;20483;-77
2021/05/28 09:39:07;;;;;;;8.45;5.38;;;14.90;80.30;;;;;;5054233;28;20040;-80
2021/05/28 09:41:34;;;;;;;7.90;5.07;;;15.10;80.20;;;;;;5068005;28;20041;-79
2021/05/28 09:44:25;;;;;;;9.07;6.70;;;15.20;80.00;;;;;;5069561;28;20040;-80
2021/05/28 09:47:13;;;;;;;7.75;5.40;;;15.50;79.60;;;;;;5061223;28;20033;-79
2021/05/28 09:49:41;;;;;;;6.63;4.50;;;15.60;79.20;;;;;;5052688;28;20051;-78
2021/05/28 09:52:26;;;;;;;7.70;5.13;;;15.80;79.00;;;;;;5041424;28;20063;-81
2021/05/28 09:54:56;;;;;;;12.23;4.88;;;16.00;78.90;;;;;;5051308;28;20048;-82
2021/05/28 09:57:44;;;;;;;8.65;5.25;;;16.20;78.40;;;;;;5066695;28;20090;-81
2021/05/28 10:00:21;;;;;;;7.13;4.55;;;16.40;78.10;;;;;;5050366;28;20028;-79
2021/05/28 10:02:48;;;;;;;8.70;4.68;;;16.60;77.50;;;;;;5050210;28;20447;-82
2021/05/28 10:05:24;;;;;;;5.72;4.45;;;16.80;76.70;;;;;;5044621;28;20044;-79
2021/05/28 10:07:50;;;;;;;6.57;4.60;;;16.80;76.10;;;;;;5042443;28;20044;-73
2021/05/28 10:10:16;;;;;;;6.65;4.13;;;16.90;75.90;;;;;;5054684;28;20438;-73
2021/05/28 10:12:42;;;;;;;6.20;4.32;;;17.10;76.30;;;;;;5078796;28;20111;-77
2021/05/28 10:15:09;;;;;;;7.43;4.25;;;17.40;75.60;;;;;;5095599;28;20071;-75
2021/05/28 10:17:34;;;;;;;5.65;4.43;;;17.70;74.80;;;;;;5061281;28;20560;-77
2021/05/28 10:20:00;;;;;;;8.20;4.10;;;18.00;73.70;;;;;;5079243;28;20127;-73
2021/05/28 10:22:27;;;;;;;6.75;4.00;;;18.30;73.40;;;;;;5062934;28;20097;-76
2021/05/28 10:24:53;;;;;;;4.78;3.83;;;18.50;72.50;;;;;;5095333;28;20040;-72
2021/05/28 10:27:22;;;;;;;6.60;4.25;;;18.60;71.30;;;;;;5093190;28;20485;-72
2021/05/28 10:29:49;;;;;;;7.15;4.85;;;18.60;70.80;;;;;;5096036;28;20401;-74
2021/05/28 10:32:15;;;;;;;5.97;3.97;;;18.60;70.60;;;;;;5063182;28;20044;-75
2021/05/28 10:35:12;;;;;;;6.43;3.83;;;18.70;70.00;;;;;;5065947;28;20048;-80
2021/05/28 10:37:40;;;;;;;9.02;4.28;;;18.90;69.00;;;;;;5038993;28;20427;-77
2021/05/28 10:40:29;;;;;;;9.13;4.47;;;19.00;69.30;;;;;;5067670;28;20039;-78
2021/05/28 10:42:57;;;;;;;11.30;4.82;;;19.10;68.10;;;;;;5077858;28;20042;-75
2021/05/28 10:46:01;;;;;;;10.10;4.43;;;19.10;68.60;;;;;;5058690;28;20560;-77
2021/05/28 10:48:37;;;;;;;9.23;4.30;;;19.10;68.00;;;;;;5076153;28;20055;-78
2021/05/28 10:51:03;;;;;;;7.30;4.00;;;19.20;68.40;;;;;;5069559;28;20064;-76
2021/05/28 10:53:31;;;;;;;6.15;3.72;;;19.40;68.50;;;;;;5069767;28;20048;-76
2021/05/28 10:56:10;;;;;;;6.63;3.60;;;19.50;68.20;;;;;;5038132;28;20460;-76
2021/05/28 10:58:49;;;;;;;5.78;3.58;;;19.60;66.80;;;;;;5053234;28;20365;-76
2021/05/28 11:01:33;;;;;;;5.82;4.60;;;19.60;66.40;;;;;;5061196;28;20059;-78
2021/05/28 11:04:07;;;;;;;5.28;3.67;;;19.70;66.20;;;;;;5062235;28;20033;-76
2021/05/28 11:06:34;;;;;;;6.88;4.13;;;19.70;66.20;;;;;;5035571;28;20108;-77
2021/05/28 11:09:06;;;;;;;9.30;4.47;;;19.70;65.90;;;;;;5040975;28;20050;-77
2021/05/28 11:11:35;;;;;;;5.15;4.10;;;19.70;65.80;;;;;;5038057;28;20060;-78
2021/05/28 11:14:10;;;;;;;5.90;4.47;;;19.80;65.70;;;;;;5053954;28;20143;-78
2021/05/28 11:16:55;;;;;;;7.32;4.47;;;19.70;65.30;;;;;;5020670;28;20053;-79
2021/05/28 11:19:23;;;;;;;6.25;4.20;;;19.80;64.20;;;;;;5054396;28;20045;-77
2021/05/28 11:22:14;;;;;;;7.05;4.40;;;19.90;65.10;;;;;;5036648;28;20048;-77
2021/05/28 11:24:46;;;;;;;7.28;4.57;;;20.20;65.40;;;;;;5053588;28;20186;-77
2021/05/28 11:27:22;;;;;;;5.38;4.00;;;20.50;64.70;;;;;;5052384;28;20065;-82
2021/05/28 11:30:03;;;;;;;5.63;3.78;;;20.80;63.80;;;;;;5036301;28;20060;-77
2021/05/28 11:32:30;;;;;;;5.47;3.70;;;21.20;63.00;;;;;;5037135;28;20173;-77
2021/05/28 11:35:21;;;;;;;4.32;3.28;;;21.60;62.50;;;;;;5036058;28;20147;-76
2021/05/28 11:38:10;;;;;;;5.25;2.90;;;21.70;61.40;;;;;;5054495;28;20067;-76
2021/05/28 11:40:39;;;;;;;4.82;3.42;;;21.80;61.00;;;;;;5052086;28;20095;-76
2021/05/28 11:43:06;;;;;;;6.75;3.38;;;21.70;60.70;;;;;;5035196;28;20936;-77
2021/05/28 11:45:33;;;;;;;4.75;3.30;;;21.60;60.00;;;;;;5035514;28;20040;-79
2021/05/28 11:47:59;;;;;;;4.60;3.22;;;21.40;59.20;;;;;;5034929;28;20436;-79
2021/05/28 11:50:25;;;;;;;5.28;3.15;;;21.30;58.80;;;;;;5039037;28;20045;-78
2021/05/28 11:52:57;;;;;;;4.60;3.20;;;21.40;58.50;;;;;;5025147;28;20037;-77
2021/05/28 11:55:23;;;;;;;4.63;3.10;;;21.50;57.80;;;;;;5040380;28;20118;-77
2021/05/28 11:58:03;;;;;;;4.60;2.97;;;21.50;58.10;;;;;;5028749;28;20111;-77
2021/05/28 12:00:32;;;;;;;6.28;3.10;;;21.40;57.50;;;;;;5060090;28;20041;-77
2021/05/28 12:02:59;;;;;;;8.25;3.90;;;21.40;58.00;;;;;;5054701;28;20071;-78
2021/05/28 12:05:38;;;;;;;4.38;3.15;;;21.30;58.10;;;;;;5062681;28;20041;-77
2021/05/28 12:08:10;;;;;;;5.20;2.97;;;21.30;57.40;;;;;;5031800;28;20056;-79
2021/05/28 12:11:00;;;;;;;;;;;21.50;56.90;;;;;;5074599;28;20113;-82
2021/05/28 12:13:31;;;;;;;5.15;3.15;;;21.80;54.60;;;;;;5038394;28;20009;-70
2021/05/28 12:16:04;;;;;;;9.30;3.35;;;21.80;56.40;;;;;;5053407;28;20040;-83
2021/05/28 12:18:34;;;;;;;10.55;3.70;;;21.60;54.50;;;;;;5030802;28;20061;-86
2021/05/28 12:21:22;;;;;;;5.68;3.35;;;21.50;55.10;;;;;;5066984;28;20045;-86
2021/05/28 12:23:48;;;;;;;5.20;3.33;;;21.60;53.60;;;;;;5048811;28;20045;-85
2021/05/28 12:26:16;;;;;;;5.40;3.25;;;21.70;53.50;;;;;;5044585;28;20036;-85
2021/05/28 12:28:52;;;;;;;7.05;2.70;;;21.70;52.40;;;;;;5047751;28;20037;-80
2021/05/28 12:31:21;;;;;;;4.07;2.60;;;21.80;52.10;;;;;;5030003;28;20088;-79
2021/05/28 12:33:57;;;;;;;4.88;3.03;;;21.80;51.50;;;;;;5049321;28;20060;-81
2021/05/28 12:36:40;;;;;;;5.93;2.90;;;21.70;50.50;;;;;;5039266;28;20072;-80
2021/05/28 12:39:16;;;;;;;5.53;2.88;;;21.50;50.70;;;;;;5042593;28;20048;-82
2021/05/28 12:41:44;;;;;;;10.30;3.72;;;21.30;51.50;;;;;;5040667;28;20121;-87
2021/05/28 12:44:10;;;;;;;14.38;3.67;;;21.20;51.80;;;;;;5024766;28;20045;-82
2021/05/28 12:46:37;;;;;;;6.53;2.92;;;21.10;52.40;;;;;;5014724;28;20046;-79
2021/05/28 12:49:13;;;;;;;6.43;2.78;;;21.10;53.10;;;;;;5031671;28;20049;-78